createdAt,value
2018-11-12T00:00:23.478Z,89.30
2018-11-12T00:01:23.420Z,89.20
2018-11-12T00:02:23.456Z,89.55
2018-11-12T00:03:23.460Z,89.34
2018-11-12T00:04:23.418Z,89.71
2018-11-12T00:05:23.422Z,89.71
2018-11-12T00:06:23.411Z,90.12
2018-11-12T00:07:23.359Z,90.63
2018-11-12T00:08:23.389Z,90.32
2018-11-12T00:09:23.424Z,90.32
2018-11-12T00:10:23.321Z,90.42
2018-11-12T00:11:23.314Z,90.67
2018-11-12T00:12:23.304Z,90.83
2018-11-12T00:13:23.344Z,90.94
2018-11-12T00:14:23.354Z,91.18
2018-11-12T00:15:23.318Z,91.35
2018-11-12T00:16:23.309Z,91.85
2018-11-12T00:17:23.357Z,91.79
2018-11-12T00:18:23.363Z,91.18
2018-11-12T00:19:23.224Z,91.55
2018-11-12T00:20:23.270Z,91.69
2018-11-12T00:21:23.218Z,91.75
2018-11-12T00:22:23.196Z,91.69
2018-11-12T00:23:23.299Z,91.89
2018-11-12T00:24:23.181Z,91.79
2018-11-12T00:25:23.178Z,92.20
2018-11-12T00:26:23.196Z,92.00
2018-11-12T00:27:23.214Z,92.41
2018-11-12T00:28:23.205Z,92.00
2018-11-12T00:29:23.161Z,92.41
2018-11-12T00:30:23.108Z,91.79
2018-11-12T00:31:23.110Z,92.10
2018-11-12T00:32:23.087Z,92.41
2018-11-12T00:33:23.173Z,92.50
2018-11-12T00:34:23.067Z,92.20
2018-11-12T00:35:23.112Z,92.30
2018-11-12T00:36:23.045Z,92.50
2018-11-12T00:37:23.091Z,92.50
2018-11-12T00:38:23.101Z,92.61
2018-11-12T00:39:23.095Z,92.61
2018-11-12T00:40:23.078Z,92.91
2018-11-12T00:41:23.061Z,92.71
2018-11-12T00:42:22.981Z,93.12
2018-11-12T00:43:23.011Z,92.91
2018-11-12T00:44:23.007Z,93.07
2018-11-12T00:45:23.031Z,92.87
2018-11-12T00:46:22.976Z,92.77
2018-11-12T00:47:22.966Z,92.91
2018-11-12T00:48:22.975Z,92.91
2018-11-12T00:49:22.976Z,92.20
2018-11-12T00:50:22.942Z,92.20
2018-11-12T00:51:22.957Z,92.20
2018-11-12T00:52:22.923Z,92.50
2018-11-12T00:53:22.904Z,92.61
2018-11-12T00:54:22.898Z,93.12
2018-11-12T00:55:22.886Z,92.81
2018-11-12T00:56:22.902Z,92.71
2018-11-12T00:57:22.892Z,92.61
2018-11-12T00:58:22.900Z,93.12
2018-11-12T00:59:22.794Z,93.12
2018-11-12T01:00:22.838Z,93.02
2018-11-12T01:01:22.851Z,93.02
2018-11-12T01:02:22.822Z,92.71
2018-11-12T01:03:22.746Z,92.61
2018-11-12T01:04:22.763Z,92.30
2018-11-12T01:05:22.774Z,91.69
2018-11-12T01:06:22.725Z,92.10
2018-11-12T01:07:22.754Z,92.50
2018-11-12T01:08:22.773Z,92.00
2018-11-12T01:09:22.712Z,92.67
2018-11-12T01:10:22.714Z,92.05
2018-11-12T01:11:22.661Z,92.50
2018-11-12T01:12:22.647Z,92.71
2018-11-12T01:13:22.703Z,92.71
2018-11-12T01:14:22.672Z,92.71
2018-11-12T01:15:22.656Z,92.20
2018-11-12T01:16:22.696Z,91.96
2018-11-12T01:17:22.644Z,92.05
2018-11-12T01:18:22.662Z,92.41
2018-11-12T01:19:22.627Z,92.16
2018-11-12T01:20:22.612Z,92.05
2018-11-12T01:21:22.595Z,92.10
2018-11-12T01:22:22.586Z,91.79
2018-11-12T01:23:22.577Z,92.00
2018-11-12T01:24:22.656Z,92.46
2018-11-12T01:25:22.580Z,92.50
2018-11-12T01:26:22.643Z,93.07
2018-11-12T01:27:22.487Z,93.12
2018-11-12T01:28:22.475Z,92.97
2018-11-12T01:29:22.506Z,93.12
2018-11-12T01:30:22.469Z,93.63
2018-11-12T01:31:22.542Z,93.32
2018-11-12T01:32:22.483Z,93.84
2018-11-12T01:33:22.469Z,94.14
2018-11-12T01:34:22.414Z,94.45
2018-11-12T01:35:22.459Z,94.04
2018-11-12T01:36:22.499Z,94.34
2018-11-12T01:37:22.426Z,94.14
2018-11-12T01:38:22.447Z,94.24
2018-11-12T01:39:22.422Z,94.24
2018-11-12T01:40:22.357Z,94.34
2018-11-12T01:41:22.331Z,94.04
2018-11-12T01:42:22.434Z,94.75
2018-11-12T01:43:22.313Z,94.24
2018-11-12T01:44:22.382Z,94.55
2018-11-12T01:45:22.297Z,94.75
2018-11-12T01:46:22.322Z,94.24
2018-11-12T01:47:22.292Z,94.55
2018-11-12T01:48:22.313Z,95.06
2018-11-12T01:49:22.300Z,94.85
2018-11-12T01:50:22.235Z,95.26
2018-11-12T01:51:22.230Z,94.85
2018-11-12T01:52:22.294Z,94.95
2018-11-12T01:53:22.248Z,95.20
2018-11-12T01:54:22.276Z,94.65
2018-11-12T01:55:22.222Z,94.95
2018-11-12T01:56:22.175Z,95.61
2018-11-12T01:57:22.224Z,94.85
2018-11-12T01:58:22.242Z,94.24
2018-11-12T01:59:22.181Z,94.55
2018-11-12T02:00:22.181Z,94.45
2018-11-12T02:01:22.165Z,94.55
2018-11-12T02:02:22.148Z,94.65
2018-11-12T02:03:22.168Z,94.45
2018-11-12T02:04:22.129Z,94.65
2018-11-12T02:05:22.135Z,94.65
2018-11-12T02:06:22.062Z,94.34
2018-11-12T02:07:22.056Z,94.34
2018-11-12T02:08:22.170Z,94.95
2018-11-12T02:09:22.069Z,94.70
2018-11-12T02:10:22.066Z,94.45
2018-11-12T02:11:22.062Z,94.65
2018-11-12T02:12:22.053Z,94.59
2018-11-12T02:13:22.429Z,94.85
2018-11-12T02:14:22.020Z,94.75
2018-11-12T02:15:22.001Z,94.75
2018-11-12T02:16:22.011Z,94.55
2018-11-12T02:17:21.947Z,94.65
2018-11-12T02:18:21.931Z,94.34
2018-11-12T02:19:22.110Z,94.65
2018-11-12T02:20:21.991Z,94.85
2018-11-12T02:21:21.949Z,94.85
2018-11-12T02:22:21.940Z,94.85
2018-11-12T02:23:21.894Z,94.65
2018-11-12T02:24:21.949Z,94.75
2018-11-12T02:25:21.905Z,94.65
2018-11-12T02:26:21.840Z,94.95
2018-11-12T02:27:21.875Z,94.65
2018-11-12T02:28:21.874Z,94.65
2018-11-12T02:29:21.934Z,94.55
2018-11-12T02:30:21.851Z,94.65
2018-11-12T02:31:21.835Z,94.65
2018-11-12T02:32:21.850Z,94.34
2018-11-12T02:33:21.906Z,94.65
2018-11-12T02:34:21.826Z,95.16
2018-11-12T02:35:21.833Z,94.85
2018-11-12T02:36:21.778Z,95.06
2018-11-12T02:37:21.726Z,95.36
2018-11-12T02:38:21.759Z,95.36
2018-11-12T02:39:21.789Z,95.26
2018-11-12T02:40:21.750Z,95.26
2018-11-12T02:41:21.729Z,95.06
2018-11-12T02:42:21.665Z,95.36
2018-11-12T02:43:21.699Z,95.67
2018-11-12T02:44:21.742Z,95.77
2018-11-12T02:45:21.636Z,96.18
2018-11-12T02:46:21.673Z,95.97
2018-11-12T02:47:21.659Z,95.97
2018-11-12T02:48:21.688Z,95.57
2018-11-12T02:49:21.626Z,95.77
2018-11-12T02:50:21.636Z,95.36
2018-11-12T02:51:21.623Z,95.77
2018-11-12T02:52:21.645Z,95.87
2018-11-12T02:53:21.591Z,95.61
2018-11-12T02:54:21.583Z,95.77
2018-11-12T02:55:21.602Z,95.61
2018-11-12T02:56:21.578Z,96.08
2018-11-12T02:57:21.574Z,95.77
2018-11-12T02:58:21.492Z,95.51
2018-11-12T02:59:21.531Z,95.77
2018-11-12T03:00:21.518Z,95.77
2018-11-12T03:01:21.532Z,95.67
2018-11-12T03:02:21.503Z,95.47
2018-11-12T03:03:21.485Z,95.47
2018-11-12T03:04:21.480Z,95.67
2018-11-12T03:05:21.536Z,96.18
2018-11-12T03:06:21.451Z,95.87
2018-11-12T03:07:21.439Z,95.77
2018-11-12T03:08:21.446Z,95.47
2018-11-12T03:09:21.431Z,95.67
2018-11-12T03:10:21.403Z,96.38
2018-11-12T03:11:21.395Z,96.18
2018-11-12T03:12:21.340Z,96.69
2018-11-12T03:13:21.380Z,97.00
2018-11-12T03:14:21.330Z,97.00
2018-11-12T03:15:21.339Z,96.38
2018-11-12T03:16:21.352Z,96.69
2018-11-12T03:17:21.378Z,96.89
2018-11-12T03:18:21.330Z,96.79
2018-11-12T03:19:21.312Z,96.59
2018-11-12T03:20:21.304Z,96.79
2018-11-12T03:21:21.325Z,96.79
2018-11-12T03:22:21.289Z,96.89
2018-11-12T03:23:21.271Z,97.04
2018-11-12T03:24:21.219Z,97.20
2018-11-12T03:25:21.248Z,97.71
2018-11-12T03:26:21.338Z,97.71
2018-11-12T03:27:21.229Z,97.40
2018-11-12T03:28:21.225Z,97.71
2018-11-12T03:29:21.210Z,97.61
2018-11-12T03:30:21.209Z,97.91
2018-11-12T03:31:21.213Z,98.11
2018-11-12T03:32:21.128Z,97.91
2018-11-12T03:33:21.198Z,98.11
2018-11-12T03:34:21.110Z,98.22
2018-11-12T03:35:21.133Z,98.22
2018-11-12T03:36:21.194Z,98.22
2018-11-12T03:37:21.125Z,98.02
2018-11-12T03:38:21.123Z,98.06
2018-11-12T03:39:21.096Z,98.22
2018-11-12T03:40:21.092Z,98.22
2018-11-12T03:41:21.121Z,98.11
2018-11-12T03:42:21.018Z,98.11
2018-11-12T03:43:21.053Z,97.91
2018-11-12T03:44:21.041Z,98.68
2018-11-12T03:45:21.037Z,98.63
2018-11-12T03:46:21.251Z,98.52
2018-11-12T03:47:21.016Z,98.73
2018-11-12T03:48:20.952Z,99.08
2018-11-12T03:49:21.000Z,98.73
2018-11-12T03:50:21.004Z,98.22
2018-11-12T03:51:20.980Z,98.83
2018-11-12T03:52:20.991Z,98.16
2018-11-12T03:53:20.943Z,98.36
2018-11-12T03:54:20.950Z,98.36
2018-11-12T03:55:20.923Z,98.06
2018-11-12T03:56:20.911Z,97.96
2018-11-12T03:57:20.881Z,97.65
2018-11-12T03:58:20.923Z,97.86
2018-11-12T03:59:20.839Z,98.27
2018-11-12T04:00:20.963Z,98.27
2018-11-12T04:01:20.885Z,98.57
2018-11-12T04:02:20.859Z,98.77
2018-11-12T04:03:20.856Z,98.47
2018-11-12T04:04:20.830Z,99.18
2018-11-12T04:05:21.042Z,98.88
2018-11-12T04:06:20.801Z,99.08
2018-11-12T04:07:20.791Z,98.88
2018-11-12T04:08:20.791Z,99.08
2018-11-12T04:09:20.788Z,98.68
2018-11-12T04:10:20.759Z,99.18
2018-11-12T04:11:20.816Z,99.18
2018-11-12T04:12:20.742Z,98.88
2018-11-12T04:13:20.676Z,98.88
2018-11-12T04:14:20.724Z,98.98
2018-11-12T04:15:20.833Z,98.98
2018-11-12T04:16:20.942Z,99.18
2018-11-12T04:17:20.634Z,99.18
2018-11-12T04:18:20.672Z,99.39
2018-11-12T04:19:20.738Z,99.49
2018-11-12T04:20:20.659Z,98.88
2018-11-12T04:21:20.637Z,98.98
2018-11-12T04:22:20.601Z,99.08
2018-11-12T04:23:20.657Z,99.08
2018-11-12T04:24:20.603Z,99.18
2018-11-12T04:25:20.656Z,99.39
2018-11-12T04:26:20.605Z,99.18
2018-11-12T04:27:20.560Z,98.77
2018-11-12T04:28:20.519Z,98.98
2018-11-12T04:29:20.616Z,98.88
2018-11-12T04:30:20.542Z,98.98
2018-11-12T04:31:20.534Z,99.49
2018-11-12T04:32:20.535Z,99.18
2018-11-12T04:33:20.752Z,99.39
2018-11-12T04:34:20.458Z,99.18
2018-11-12T04:35:20.488Z,99.39
2018-11-12T04:36:20.493Z,99.39
2018-11-12T04:37:20.469Z,99.49
2018-11-12T04:38:20.463Z,99.29
2018-11-12T04:39:20.497Z,99.18
2018-11-12T04:40:20.433Z,99.39
2018-11-12T04:41:20.375Z,99.59
2018-11-12T04:42:20.412Z,99.18
2018-11-12T04:43:20.387Z,99.49
2018-11-12T04:44:20.340Z,99.39
2018-11-12T04:45:20.397Z,99.18
2018-11-12T04:46:20.322Z,99.39
2018-11-12T04:47:20.372Z,99.59
2018-11-12T04:48:20.440Z,99.49
2018-11-12T04:49:20.294Z,99.59
2018-11-12T04:50:20.335Z,99.59
2018-11-12T04:51:20.266Z,99.49
2018-11-12T04:52:20.299Z,98.98
2018-11-12T04:53:20.391Z,99.18
2018-11-12T04:54:20.253Z,99.29
2018-11-12T04:55:20.424Z,98.88
2018-11-12T04:56:20.215Z,99.29
2018-11-12T04:57:20.279Z,99.18
2018-11-12T04:58:20.267Z,99.34
2018-11-12T04:59:20.226Z,99.18
2018-11-12T05:00:20.238Z,99.29
2018-11-12T05:01:20.156Z,99.04
2018-11-12T05:02:20.191Z,98.88
2018-11-12T05:03:20.198Z,99.08
2018-11-12T05:04:20.187Z,98.88
2018-11-12T05:05:20.178Z,99.39
2018-11-12T05:06:20.106Z,99.49
2018-11-12T05:07:20.216Z,99.29
2018-11-12T05:08:20.135Z,99.49
2018-11-12T05:09:20.368Z,98.98
2018-11-12T05:10:20.111Z,99.39
2018-11-12T05:11:20.095Z,99.14
2018-11-12T05:12:20.051Z,99.59
2018-11-12T05:13:20.090Z,99.18
2018-11-12T05:14:20.021Z,99.14
2018-11-12T05:15:20.024Z,98.83
2018-11-12T05:16:20.034Z,99.18
2018-11-12T05:17:20.028Z,98.93
2018-11-12T05:18:19.974Z,99.18
2018-11-12T05:19:20.008Z,99.29
2018-11-12T05:20:19.948Z,99.08
2018-11-12T05:21:20.013Z,99.49
2018-11-12T05:22:20.069Z,99.14
2018-11-12T05:23:19.962Z,99.29
2018-11-12T05:24:19.922Z,99.29
2018-11-12T05:25:19.896Z,99.44
2018-11-12T05:26:20.202Z,99.65
2018-11-12T05:27:19.923Z,99.54
2018-11-12T05:28:19.992Z,99.95
2018-11-12T05:29:19.903Z,99.75
2018-11-12T05:30:19.891Z,99.75
2018-11-12T05:31:19.920Z,99.65
2018-11-12T05:32:19.892Z,99.24
2018-11-12T05:33:20.126Z,99.24
2018-11-12T05:34:19.874Z,99.44
2018-11-12T05:35:19.835Z,99.44
2018-11-12T05:36:19.817Z,99.44
2018-11-12T05:37:19.810Z,99.95
2018-11-12T05:38:19.931Z,99.24
2018-11-12T05:39:19.831Z,99.95
2018-11-12T05:40:19.812Z,99.79
2018-11-12T05:41:19.720Z,99.49
2018-11-12T05:42:19.755Z,99.49
2018-11-12T05:43:19.706Z,99.75
2018-11-12T05:44:19.749Z,99.69
2018-11-12T05:45:20.151Z,99.75
2018-11-12T05:46:19.727Z,99.99
2018-11-12T05:47:19.705Z,99.75
2018-11-12T05:48:19.717Z,99.34
2018-11-12T05:49:19.684Z,99.44
2018-11-12T05:50:19.676Z,99.59
2018-11-12T05:51:19.717Z,99.54
2018-11-12T05:52:19.676Z,99.24
2018-11-12T05:53:19.631Z,99.79
2018-11-12T05:54:19.624Z,99.44
2018-11-12T05:55:19.576Z,99.75
2018-11-12T05:56:19.636Z,99.54
2018-11-12T05:57:19.589Z,99.44
2018-11-12T05:58:19.624Z,99.75
2018-11-12T05:59:19.582Z,99.24
2018-11-12T06:00:19.569Z,99.54
2018-11-12T06:01:19.551Z,99.44
2018-11-12T06:02:19.540Z,99.65
2018-11-12T06:03:19.585Z,99.54
2018-11-12T06:04:19.523Z,99.44
2018-11-12T06:05:19.514Z,99.54
2018-11-12T06:06:19.495Z,99.69
2018-11-12T06:07:19.522Z,99.54
2018-11-12T06:08:19.475Z,99.54
2018-11-12T06:09:19.466Z,99.34
2018-11-12T06:10:19.461Z,99.24
2018-11-12T06:11:19.408Z,99.34
2018-11-12T06:12:19.495Z,99.18
2018-11-12T06:13:19.425Z,99.44
2018-11-12T06:14:19.410Z,99.54
2018-11-12T06:15:19.413Z,99.49
2018-11-12T06:16:19.394Z,98.93
2018-11-12T06:17:19.458Z,99.65
2018-11-12T06:18:19.356Z,99.65
2018-11-12T06:19:19.374Z,99.39
2018-11-12T06:20:19.338Z,99.54
2018-11-12T06:21:19.304Z,99.44
2018-11-12T06:22:19.326Z,99.65
2018-11-12T06:23:19.292Z,99.75
2018-11-12T06:24:19.303Z,99.14
2018-11-12T06:25:19.289Z,99.75
2018-11-12T06:26:19.292Z,99.65
2018-11-12T06:27:19.332Z,99.44
2018-11-12T06:28:19.286Z,99.24
2018-11-12T06:29:19.263Z,99.44
2018-11-12T06:30:19.242Z,99.14
2018-11-12T06:31:19.294Z,98.93
2018-11-12T06:32:19.210Z,98.83
2018-11-12T06:33:19.211Z,98.83
2018-11-12T06:34:19.201Z,98.73
2018-11-12T06:35:19.166Z,98.73
2018-11-12T06:36:19.195Z,99.24
2018-11-12T06:37:19.181Z,98.52
2018-11-12T06:38:19.137Z,98.83
2018-11-12T06:39:19.146Z,98.93
2018-11-12T06:40:19.085Z,98.73
2018-11-12T06:41:19.112Z,98.83
2018-11-12T06:42:19.117Z,98.83
2018-11-12T06:43:19.257Z,98.43
2018-11-12T06:44:19.075Z,98.32
2018-11-12T06:45:19.101Z,98.73
2018-11-12T06:46:19.073Z,98.83
2018-11-12T06:47:19.129Z,98.58
2018-11-12T06:48:19.036Z,98.52
2018-11-12T06:49:19.030Z,98.32
2018-11-12T06:50:19.045Z,98.73
2018-11-12T06:51:19.011Z,98.32
2018-11-12T06:52:19.004Z,98.02
2018-11-12T06:53:19.076Z,97.97
2018-11-12T06:54:18.966Z,98.38
2018-11-12T06:55:18.917Z,98.07
2018-11-12T06:56:18.962Z,98.02
2018-11-12T06:57:18.940Z,97.61
2018-11-12T06:58:18.960Z,98.07
2018-11-12T06:59:18.953Z,98.27
2018-11-12T07:00:18.914Z,98.11
2018-11-12T07:01:18.898Z,97.91
2018-11-12T07:02:18.882Z,97.61
2018-11-12T07:03:18.873Z,97.66
2018-11-12T07:04:18.895Z,97.46
2018-11-12T07:05:18.850Z,96.95
2018-11-12T07:06:18.880Z,97.66
2018-11-12T07:07:18.833Z,97.25
2018-11-12T07:08:18.819Z,97.05
2018-11-12T07:09:18.846Z,96.95
2018-11-12T07:10:18.761Z,97.66
2018-11-12T07:11:18.831Z,97.46
2018-11-12T07:12:18.777Z,97.87
2018-11-12T07:13:18.807Z,97.46
2018-11-12T07:14:18.723Z,97.25
2018-11-12T07:15:18.751Z,96.75
2018-11-12T07:16:18.756Z,97.16
2018-11-12T07:17:18.674Z,96.75
2018-11-12T07:18:18.713Z,96.84
2018-11-12T07:19:18.694Z,96.64
2018-11-12T07:20:18.830Z,96.64
2018-11-12T07:21:18.674Z,96.54
2018-11-12T07:22:18.642Z,96.44
2018-11-12T07:23:18.667Z,96.34
2018-11-12T07:24:18.673Z,96.34
2018-11-12T07:25:18.715Z,96.80
2018-11-12T07:26:18.630Z,96.70
2018-11-12T07:27:18.646Z,96.30
2018-11-12T07:28:18.606Z,96.70
2018-11-12T07:29:18.589Z,96.80
2018-11-12T07:30:18.580Z,96.80
2018-11-12T07:31:18.587Z,96.60
2018-11-12T07:32:18.599Z,96.80
2018-11-12T07:33:18.548Z,96.91
2018-11-12T07:34:18.535Z,97.00
2018-11-12T07:35:18.538Z,96.91
2018-11-12T07:36:18.512Z,97.11
2018-11-12T07:37:18.548Z,96.19
2018-11-12T07:38:18.498Z,95.89
2018-11-12T07:39:18.441Z,95.94
2018-11-12T07:40:18.471Z,95.43
2018-11-12T07:41:18.459Z,95.53
2018-11-12T07:42:18.485Z,95.74
2018-11-12T07:43:18.437Z,95.43
2018-11-12T07:44:18.433Z,94.92
2018-11-12T07:45:18.440Z,95.74
2018-11-12T07:46:18.418Z,94.47
2018-11-12T07:47:18.407Z,94.78
2018-11-12T07:48:18.418Z,94.57
2018-11-12T07:49:18.379Z,93.96
2018-11-12T07:50:18.372Z,94.27
2018-11-12T07:51:18.418Z,94.12
2018-11-12T07:52:18.348Z,93.92
2018-11-12T07:53:18.353Z,94.23
2018-11-12T07:54:18.399Z,93.92
2018-11-12T07:55:18.318Z,93.51
2018-11-12T07:56:18.390Z,93.21
2018-11-12T07:57:18.290Z,93.06
2018-11-12T07:58:18.299Z,93.06
2018-11-12T07:59:18.283Z,92.45
2018-11-12T08:00:18.255Z,92.86
2018-11-12T08:01:18.277Z,92.45
2018-11-12T08:02:18.234Z,92.45
2018-11-12T08:03:18.283Z,92.61
2018-11-12T08:04:18.209Z,92.45
2018-11-12T08:05:18.192Z,92.35
2018-11-12T08:06:18.199Z,91.39
2018-11-12T08:07:18.194Z,91.80
2018-11-12T08:08:18.155Z,91.49
2018-11-12T08:09:18.247Z,91.55
2018-11-12T08:10:18.146Z,91.90
2018-11-12T08:11:18.094Z,91.65
2018-11-12T08:12:18.123Z,91.55
2018-11-12T08:13:18.219Z,91.35
2018-11-12T08:14:18.160Z,91.45
2018-11-12T08:15:18.092Z,91.25
2018-11-12T08:16:18.035Z,90.64
2018-11-12T08:17:18.244Z,91.14
2018-11-12T08:18:18.062Z,90.90
2018-11-12T08:19:18.082Z,90.19
2018-11-12T08:20:17.992Z,90.29
2018-11-12T08:21:18.025Z,90.90
2018-11-12T08:22:17.975Z,90.59
2018-11-12T08:23:18.023Z,90.09
2018-11-12T08:24:18.086Z,90.90
2018-11-12T08:25:18.019Z,90.90
2018-11-12T08:26:17.974Z,90.80
2018-11-12T08:27:17.973Z,91.00
2018-11-12T08:28:17.970Z,91.00
2018-11-12T08:29:17.892Z,90.19
2018-11-12T08:30:18.001Z,90.59
2018-11-12T08:31:17.922Z,91.16
2018-11-12T08:32:17.901Z,90.59
2018-11-12T08:33:17.948Z,90.19
2018-11-12T08:34:17.884Z,89.58
2018-11-12T08:35:17.876Z,89.84
2018-11-12T08:36:17.916Z,89.94
2018-11-12T08:37:17.808Z,90.09
2018-11-12T08:38:17.839Z,89.84
2018-11-12T08:39:17.945Z,89.64
2018-11-12T08:40:17.840Z,89.84
2018-11-12T08:41:17.814Z,89.74
2018-11-12T08:42:17.798Z,89.64
2018-11-12T08:43:17.795Z,89.74
2018-11-12T08:44:17.774Z,89.74
2018-11-12T08:45:17.793Z,89.64
2018-11-12T08:46:17.755Z,89.94
2018-11-12T08:47:17.739Z,89.48
2018-11-12T08:48:17.737Z,89.54
2018-11-12T08:49:17.747Z,89.64
2018-11-12T08:50:17.744Z,89.68
2018-11-12T08:51:17.697Z,89.74
2018-11-12T08:52:17.793Z,89.54
2018-11-12T08:53:17.681Z,89.84
2018-11-12T08:54:17.723Z,89.74
2018-11-12T08:55:17.699Z,89.28
2018-11-12T08:56:17.998Z,89.33
2018-11-12T08:57:17.635Z,89.54
2018-11-12T08:58:18.406Z,89.37
2018-11-12T08:59:17.671Z,88.87
2018-11-12T09:00:17.598Z,89.23
2018-11-12T09:01:17.557Z,89.64
2018-11-12T09:02:17.595Z,89.23
2018-11-12T09:03:17.519Z,89.54
2018-11-12T09:04:17.551Z,89.59
2018-11-12T09:05:17.545Z,89.23
2018-11-12T09:06:17.669Z,89.03
2018-11-12T09:07:18.051Z,88.78
2018-11-12T09:08:17.462Z,88.89
2018-11-12T09:09:17.513Z,88.78
2018-11-12T09:10:17.578Z,88.75
2018-11-12T09:11:17.481Z,88.54
2018-11-12T09:12:17.738Z,88.23
2018-11-12T09:13:17.478Z,87.63
2018-11-12T09:14:17.444Z,87.93
2018-11-12T09:15:17.439Z,88.13
2018-11-12T09:16:17.383Z,87.93
2018-11-12T09:17:17.415Z,87.63
2018-11-12T09:18:17.422Z,88.03
2018-11-12T09:19:17.686Z,87.08
2018-11-12T09:20:17.441Z,87.18
2018-11-12T09:21:17.374Z,87.48
2018-11-12T09:22:17.391Z,87.69
2018-11-12T09:23:17.351Z,87.59
2018-11-12T09:24:17.390Z,87.59
2018-11-12T09:25:17.352Z,87.54
2018-11-12T09:26:17.331Z,87.04
2018-11-12T09:27:17.311Z,86.94
2018-11-12T09:28:17.294Z,86.63
2018-11-12T09:29:17.341Z,86.94
2018-11-12T09:30:17.559Z,87.00
2018-11-12T09:31:18.813Z,87.04
2018-11-12T09:32:17.263Z,86.08
2018-11-12T09:33:17.245Z,86.69
2018-11-12T09:34:17.239Z,85.48
2018-11-12T09:35:17.225Z,85.84
2018-11-12T09:36:17.261Z,85.44
2018-11-12T09:37:17.216Z,85.64
2018-11-12T09:38:17.215Z,85.64
2018-11-12T09:39:17.179Z,85.19
2018-11-12T09:40:17.177Z,84.89
2018-11-12T09:41:17.271Z,84.69
2018-11-12T09:42:17.153Z,84.28
2018-11-12T09:43:17.157Z,84.28
2018-11-12T09:44:17.169Z,83.98
2018-11-12T09:45:17.107Z,84.25
2018-11-12T09:46:17.106Z,83.84
2018-11-12T09:47:17.042Z,84.45
2018-11-12T09:48:17.112Z,83.74
2018-11-12T09:49:17.147Z,83.84
2018-11-12T09:50:17.277Z,83.90
2018-11-12T09:51:17.050Z,82.89
2018-11-12T09:52:17.043Z,82.99
2018-11-12T09:53:17.022Z,83.50
2018-11-12T09:54:17.153Z,83.15
2018-11-12T09:55:17.003Z,82.24
2018-11-12T09:56:17.285Z,82.95
2018-11-12T09:57:16.986Z,82.04
2018-11-12T09:58:16.977Z,81.84
2018-11-12T09:59:16.982Z,81.54
2018-11-12T10:00:17.095Z,81.94
2018-11-12T10:01:17.348Z,80.32
2018-11-12T10:02:17.653Z,80.69
2018-11-12T10:03:17.546Z,80.43
2018-11-12T10:04:17.122Z,80.99
2018-11-12T10:05:18.197Z,80.19
2018-11-12T10:06:18.251Z,80.39
2018-11-12T10:07:18.361Z,80.79
2018-11-12T10:08:18.338Z,80.39
2018-11-12T10:09:20.192Z,80.59
2018-11-12T10:10:18.619Z,80.90
2018-11-12T10:11:18.491Z,80.29
2018-11-12T10:12:20.238Z,79.99
2018-11-12T10:13:19.509Z,79.34
2018-11-12T10:14:19.183Z,79.44
2018-11-12T10:15:19.927Z,78.43
2018-11-12T10:16:18.770Z,78.94
2018-11-12T10:17:19.132Z,78.84
2018-11-12T10:18:17.723Z,78.84
2018-11-12T10:19:16.849Z,78.94
2018-11-12T10:20:16.734Z,79.04
2018-11-12T10:21:16.712Z,79.04
2018-11-12T10:22:16.706Z,79.04
2018-11-12T10:23:16.650Z,78.74
2018-11-12T10:24:16.708Z,79.04
2018-11-12T10:25:16.679Z,79.04
2018-11-12T10:26:16.669Z,79.10
2018-11-12T10:27:16.736Z,78.74
2018-11-12T10:28:16.686Z,78.80
2018-11-12T10:29:16.675Z,78.43
2018-11-12T10:30:16.882Z,77.42
2018-11-12T10:31:16.608Z,78.30
2018-11-12T10:32:16.598Z,78.33
2018-11-12T10:33:16.625Z,78.33
2018-11-12T10:34:16.622Z,78.39
2018-11-12T10:35:16.569Z,78.39
2018-11-12T10:36:16.590Z,78.74
2018-11-12T10:37:16.538Z,78.53
2018-11-12T10:38:16.531Z,78.39
2018-11-12T10:39:16.518Z,78.70
2018-11-12T10:40:16.510Z,77.89
2018-11-12T10:41:16.853Z,77.69
2018-11-12T10:42:16.500Z,77.39
2018-11-12T10:43:16.433Z,77.69
2018-11-12T10:44:16.464Z,78.39
2018-11-12T10:45:16.459Z,77.89
2018-11-12T10:46:16.443Z,76.98
2018-11-12T10:47:16.412Z,76.75
2018-11-12T10:48:16.443Z,77.86
2018-11-12T10:49:16.415Z,77.95
2018-11-12T10:50:16.399Z,77.75
2018-11-12T10:51:16.406Z,76.54
2018-11-12T10:52:16.382Z,76.04
2018-11-12T10:53:16.394Z,75.74
2018-11-12T10:54:16.429Z,75.94
2018-11-12T10:55:16.547Z,75.84
2018-11-12T10:56:16.336Z,75.90
2018-11-12T10:57:16.282Z,75.43
2018-11-12T10:58:16.347Z,75.74
2018-11-12T10:59:16.312Z,75.30
2018-11-12T11:00:16.332Z,75.10
2018-11-12T11:01:16.280Z,75.10
2018-11-12T11:02:16.225Z,76.04
2018-11-12T11:03:16.286Z,75.30
2018-11-12T11:04:16.257Z,75.60
2018-11-12T11:05:16.241Z,75.20
2018-11-12T11:06:16.229Z,75.30
2018-11-12T11:07:16.170Z,75.50
2018-11-12T11:08:16.389Z,75.40
2018-11-12T11:09:16.191Z,75.30
2018-11-12T11:10:16.194Z,75.36
2018-11-12T11:11:16.185Z,74.99
2018-11-12T11:12:16.188Z,75.06
2018-11-12T11:13:16.175Z,75.10
2018-11-12T11:14:16.882Z,75.06
2018-11-12T11:15:16.122Z,75.16
2018-11-12T11:16:16.075Z,74.96
2018-11-12T11:17:16.104Z,74.96
2018-11-12T11:18:16.160Z,74.26
2018-11-12T11:19:16.121Z,74.35
2018-11-12T11:20:16.119Z,74.15
2018-11-12T11:21:16.164Z,74.76
2018-11-12T11:22:16.116Z,74.22
2018-11-12T11:23:16.047Z,74.26
2018-11-12T11:24:16.040Z,74.35
2018-11-12T11:25:15.981Z,73.92
2018-11-12T11:26:16.041Z,74.05
2018-11-12T11:27:15.996Z,73.95
2018-11-12T11:28:15.986Z,74.26
2018-11-12T11:29:15.983Z,74.66
2018-11-12T11:30:16.005Z,74.12
2018-11-12T11:31:15.994Z,74.02
2018-11-12T11:32:15.959Z,74.73
2018-11-12T11:33:15.934Z,73.72
2018-11-12T11:34:15.977Z,74.32
2018-11-12T11:35:15.920Z,74.12
2018-11-12T11:36:15.884Z,73.52
2018-11-12T11:37:15.870Z,73.72
2018-11-12T11:38:15.888Z,73.92
2018-11-12T11:39:15.877Z,73.92
2018-11-12T11:40:46.062Z,73.72
2018-11-12T11:44:28.833Z,73.41
2018-11-12T11:45:27.825Z,73.11
2018-11-12T11:52:00.953Z,73.18
2018-11-12T11:53:00.840Z,72.81
2018-11-12T11:54:00.942Z,72.71
2018-11-12T12:11:14.119Z,73.58
2018-11-12T12:12:14.031Z,72.77
2018-11-12T12:13:14.071Z,72.57
2018-11-12T12:14:14.054Z,72.47
2018-11-12T12:15:14.048Z,73.48
2018-11-12T12:16:14.081Z,72.77
2018-11-12T12:17:14.023Z,73.18
2018-11-12T12:18:14.016Z,73.18
2018-11-12T12:19:14.064Z,73.28
2018-11-12T12:20:13.995Z,73.68
2018-11-12T12:21:14.087Z,73.24
2018-11-12T12:22:14.014Z,72.24
2018-11-12T12:23:14.032Z,72.34
2018-11-12T12:24:13.951Z,72.34
2018-11-12T12:25:14.382Z,72.14
2018-11-12T12:26:13.925Z,71.70
2018-11-12T12:27:13.946Z,71.30
2018-11-12T12:28:13.871Z,71.00
2018-11-12T12:29:13.893Z,71.20
2018-11-12T12:30:13.877Z,71.00
2018-11-12T12:31:13.900Z,71.00
2018-11-12T12:32:13.865Z,70.09
2018-11-12T12:33:13.862Z,69.79
2018-11-12T12:34:13.923Z,70.50
2018-11-12T12:35:13.856Z,70.39
2018-11-12T12:36:13.820Z,70.09
2018-11-12T12:37:13.804Z,70.39
2018-11-12T12:38:13.824Z,69.49
2018-11-12T12:39:13.786Z,69.25
2018-11-12T12:40:13.733Z,68.65
2018-11-12T12:41:13.756Z,68.45
2018-11-12T12:42:13.707Z,68.41
2018-11-12T12:43:13.777Z,68.62
2018-11-12T12:44:13.736Z,68.62
2018-11-12T12:45:13.808Z,68.02
2018-11-12T12:46:13.752Z,67.41
2018-11-12T12:47:13.692Z,67.41
2018-11-12T12:48:13.707Z,67.31
2018-11-12T12:49:13.679Z,67.51
2018-11-12T12:50:13.699Z,67.61
2018-11-12T12:51:13.669Z,67.11
2018-11-12T12:52:13.602Z,67.41
2018-11-12T12:53:13.624Z,67.31
2018-11-12T12:54:13.655Z,67.41
2018-11-12T12:55:13.686Z,68.21
2018-11-12T12:56:13.604Z,68.62
2018-11-12T12:57:13.578Z,68.32
2018-11-12T12:58:13.684Z,68.75
2018-11-12T12:59:13.593Z,68.72
2018-11-12T13:00:13.506Z,68.75
2018-11-12T13:01:13.499Z,67.85
2018-11-12T13:02:13.555Z,68.75
2018-11-12T13:03:13.508Z,68.55
2018-11-12T13:04:13.529Z,68.25
2018-11-12T13:05:13.449Z,68.65
2018-11-12T13:06:13.484Z,68.85
2018-11-12T13:07:13.500Z,68.85
2018-11-12T13:08:13.470Z,69.35
2018-11-12T13:09:13.479Z,68.75
2018-11-12T13:10:13.471Z,68.45
2018-11-12T13:11:13.433Z,68.15
2018-11-12T13:12:13.420Z,68.25
2018-11-12T13:13:13.386Z,67.74
2018-11-12T13:14:13.558Z,67.65
2018-11-12T13:15:13.490Z,67.65
2018-11-12T13:16:13.397Z,67.14
2018-11-12T13:17:13.412Z,67.82